sensor_id;sensor_type;location;lat;lon;timestamp;temperature;humidity
5192;DHT22;2615;44.524;11.284;2023-05-19T00:01:00;15.70;82.70
5192;DHT22;2615;44.524;11.284;2023-05-19T00:03:28;15.70;82.80
5192;DHT22;2615;44.524;11.284;2023-05-19T00:06:01;15.70;82.80
5192;DHT22;2615;44.524;11.284;2023-05-19T00:08:30;15.70;82.90
5192;DHT22;2615;44.524;11.284;2023-05-19T00:10:59;15.70;82.90
5192;DHT22;2615;44.524;11.284;2023-05-19T00:13:27;15.70;82.90
5192;DHT22;2615;44.524;11.284;2023-05-19T00:15:56;15.70;83.00
5192;DHT22;2615;44.524;11.284;2023-05-19T00:18:24;15.60;82.90
5192;DHT22;2615;44.524;11.284;2023-05-19T00:20:55;15.70;83.10
5192;DHT22;2615;44.524;11.284;2023-05-19T00:23:25;15.70;83.10
5192;DHT22;2615;44.524;11.284;2023-05-19T00:25:53;15.70;83.10
5192;DHT22;2615;44.524;11.284;2023-05-19T00:28:21;15.70;83.10
5192;DHT22;2615;44.524;11.284;2023-05-19T00:30:50;15.60;83.00
5192;DHT22;2615;44.524;11.284;2023-05-19T00:33:18;15.60;83.10
5192;DHT22;2615;44.524;11.284;2023-05-19T00:35:46;15.60;83.10
5192;DHT22;2615;44.524;11.284;2023-05-19T00:38:14;15.60;83.20
5192;DHT22;2615;44.524;11.284;2023-05-19T00:40:44;15.60;83.30
5192;DHT22;2615;44.524;11.284;2023-05-19T00:43:12;15.60;83.30
5192;DHT22;2615;44.524;11.284;2023-05-19T00:45:40;15.60;83.30
5192;DHT22;2615;44.524;11.284;2023-05-19T00:48:08;15.60;83.30
5192;DHT22;2615;44.524;11.284;2023-05-19T00:50:37;15.60;83.40
5192;DHT22;2615;44.524;11.284;2023-05-19T00:53:05;15.60;83.40
5192;DHT22;2615;44.524;11.284;2023-05-19T00:55:36;15.60;83.50
5192;DHT22;2615;44.524;11.284;2023-05-19T00:58:09;15.60;83.50
5192;DHT22;2615;44.524;11.284;2023-05-19T01:00:37;15.60;83.50
5192;DHT22;2615;44.524;11.284;2023-05-19T01:03:06;15.60;83.50
5192;DHT22;2615;44.524;11.284;2023-05-19T01:05:38;15.60;83.50
5192;DHT22;2615;44.524;11.284;2023-05-19T01:08:07;15.60;83.60
5192;DHT22;2615;44.524;11.284;2023-05-19T01:10:36;15.60;83.70
5192;DHT22;2615;44.524;11.284;2023-05-19T01:13:04;15.60;83.70
5192;DHT22;2615;44.524;11.284;2023-05-19T01:15:41;15.50;83.60
5192;DHT22;2615;44.524;11.284;2023-05-19T01:18:14;15.60;83.80
5192;DHT22;2615;44.524;11.284;2023-05-19T01:20:49;15.60;83.80
5192;DHT22;2615;44.524;11.284;2023-05-19T01:23:32;15.50;83.80
5192;DHT22;2615;44.524;11.284;2023-05-19T01:29:35;15.50;83.90
5192;DHT22;2615;44.524;11.284;2023-05-19T01:32:09;15.50;83.90
5192;DHT22;2615;44.524;11.284;2023-05-19T01:34:42;15.50;83.90
5192;DHT22;2615;44.524;11.284;2023-05-19T01:37:11;15.50;84.00
5192;DHT22;2615;44.524;11.284;2023-05-19T01:39:41;15.40;83.90
5192;DHT22;2615;44.524;11.284;2023-05-19T01:42:10;15.50;84.10
5192;DHT22;2615;44.524;11.284;2023-05-19T01:44:38;15.40;84.00
5192;DHT22;2615;44.524;11.284;2023-05-19T01:47:09;15.50;84.20
5192;DHT22;2615;44.524;11.284;2023-05-19T01:49:37;15.40;84.00
5192;DHT22;2615;44.524;11.284;2023-05-19T01:52:05;15.40;84.10
5192;DHT22;2615;44.524;11.284;2023-05-19T01:54:34;15.40;84.10
5192;DHT22;2615;44.524;11.284;2023-05-19T01:57:07;15.40;84.20
5192;DHT22;2615;44.524;11.284;2023-05-19T01:59:50;15.40;84.20
5192;DHT22;2615;44.524;11.284;2023-05-19T02:02:27;15.40;84.30
5192;DHT22;2615;44.524;11.284;2023-05-19T02:05:04;15.40;84.30
5192;DHT22;2615;44.524;11.284;2023-05-19T02:07:41;15.40;84.40
5192;DHT22;2615;44.524;11.284;2023-05-19T02:10:16;15.40;84.30
5192;DHT22;2615;44.524;11.284;2023-05-19T02:12:46;15.40;84.40
5192;DHT22;2615;44.524;11.284;2023-05-19T02:15:20;15.40;84.40
5192;DHT22;2615;44.524;11.284;2023-05-19T02:17:50;15.40;84.40
5192;DHT22;2615;44.524;11.284;2023-05-19T02:20:20;15.40;84.40
5192;DHT22;2615;44.524;11.284;2023-05-19T02:22:48;15.30;84.30
5192;DHT22;2615;44.524;11.284;2023-05-19T02:25:17;15.30;84.40
5192;DHT22;2615;44.524;11.284;2023-05-19T02:27:45;15.30;84.50
5192;DHT22;2615;44.524;11.284;2023-05-19T02:30:14;15.30;84.50
5192;DHT22;2615;44.524;11.284;2023-05-19T02:32:43;15.30;84.60
5192;DHT22;2615;44.524;11.284;2023-05-19T02:35:14;15.30;84.60
5192;DHT22;2615;44.524;11.284;2023-05-19T02:37:42;15.30;84.70
5192;DHT22;2615;44.524;11.284;2023-05-19T02:40:10;15.30;84.80
5192;DHT22;2615;44.524;11.284;2023-05-19T02:42:38;15.30;84.80
5192;DHT22;2615;44.524;11.284;2023-05-19T02:45:07;15.30;84.80
5192;DHT22;2615;44.524;11.284;2023-05-19T02:47:35;15.30;84.80
5192;DHT22;2615;44.524;11.284;2023-05-19T02:50:05;15.30;84.80
5192;DHT22;2615;44.524;11.284;2023-05-19T02:52:35;15.30;84.80
5192;DHT22;2615;44.524;11.284;2023-05-19T02:55:03;15.20;84.80
5192;DHT22;2615;44.524;11.284;2023-05-19T02:57:33;15.30;84.90
5192;DHT22;2615;44.524;11.284;2023-05-19T03:00:01;15.20;84.80
5192;DHT22;2615;44.524;11.284;2023-05-19T03:02:31;15.20;84.80
5192;DHT22;2615;44.524;11.284;2023-05-19T03:05:01;15.20;84.80
5192;DHT22;2615;44.524;11.284;2023-05-19T03:07:29;15.20;84.80
5192;DHT22;2615;44.524;11.284;2023-05-19T03:10:00;15.20;84.90
5192;DHT22;2615;44.524;11.284;2023-05-19T03:12:31;15.20;84.90
5192;DHT22;2615;44.524;11.284;2023-05-19T03:14:59;15.20;84.90
5192;DHT22;2615;44.524;11.284;2023-05-19T03:17:27;15.20;84.90
5192;DHT22;2615;44.524;11.284;2023-05-19T03:19:59;15.20;85.00
5192;DHT22;2615;44.524;11.284;2023-05-19T03:22:28;15.20;85.00
5192;DHT22;2615;44.524;11.284;2023-05-19T03:24:56;15.20;85.00
5192;DHT22;2615;44.524;11.284;2023-05-19T03:27:25;15.20;85.00
5192;DHT22;2615;44.524;11.284;2023-05-19T03:29:54;15.20;85.10
5192;DHT22;2615;44.524;11.284;2023-05-19T03:32:22;15.10;85.00
5192;DHT22;2615;44.524;11.284;2023-05-19T03:34:50;15.20;85.10
5192;DHT22;2615;44.524;11.284;2023-05-19T03:37:18;15.10;85.10
5192;DHT22;2615;44.524;11.284;2023-05-19T03:39:46;15.20;85.20
5192;DHT22;2615;44.524;11.284;2023-05-19T03:42:15;15.10;85.10
5192;DHT22;2615;44.524;11.284;2023-05-19T03:44:44;15.10;85.20
5192;DHT22;2615;44.524;11.284;2023-05-19T03:47:12;15.10;85.20
5192;DHT22;2615;44.524;11.284;2023-05-19T03:49:41;15.10;85.20
5192;DHT22;2615;44.524;11.284;2023-05-19T03:52:09;15.10;85.10
5192;DHT22;2615;44.524;11.284;2023-05-19T03:54:38;15.10;85.20
5192;DHT22;2615;44.524;11.284;2023-05-19T03:57:08;15.10;85.20
5192;DHT22;2615;44.524;11.284;2023-05-19T03:59:37;15.10;85.30
5192;DHT22;2615;44.524;11.284;2023-05-19T04:02:08;15.10;85.30
5192;DHT22;2615;44.524;11.284;2023-05-19T04:04:36;15.10;85.40
5192;DHT22;2615;44.524;11.284;2023-05-19T04:07:05;15.10;85.40
5192;DHT22;2615;44.524;11.284;2023-05-19T04:09:33;15.10;85.50
5192;DHT22;2615;44.524;11.284;2023-05-19T04:12:03;15.10;85.50
5192;DHT22;2615;44.524;11.284;2023-05-19T04:14:32;15.10;85.50
5192;DHT22;2615;44.524;11.284;2023-05-19T04:17:00;15.10;85.50
5192;DHT22;2615;44.524;11.284;2023-05-19T04:19:29;15.10;85.60
5192;DHT22;2615;44.524;11.284;2023-05-19T04:21:58;15.10;85.60
5192;DHT22;2615;44.524;11.284;2023-05-19T04:24:26;15.10;85.60
5192;DHT22;2615;44.524;11.284;2023-05-19T04:26:54;15.10;85.60
5192;DHT22;2615;44.524;11.284;2023-05-19T04:29:22;15.10;85.60
5192;DHT22;2615;44.524;11.284;2023-05-19T04:31:50;15.10;85.70
5192;DHT22;2615;44.524;11.284;2023-05-19T04:34:18;15.10;85.70
5192;DHT22;2615;44.524;11.284;2023-05-19T04:36:48;15.10;85.80
5192;DHT22;2615;44.524;11.284;2023-05-19T04:39:19;15.20;85.90
5192;DHT22;2615;44.524;11.284;2023-05-19T04:41:47;15.20;85.90
5192;DHT22;2615;44.524;11.284;2023-05-19T04:44:15;15.20;86.00
5192;DHT22;2615;44.524;11.284;2023-05-19T04:46:44;15.20;86.00
5192;DHT22;2615;44.524;11.284;2023-05-19T04:49:12;15.20;86.10
5192;DHT22;2615;44.524;11.284;2023-05-19T04:51:40;15.20;86.10
5192;DHT22;2615;44.524;11.284;2023-05-19T04:54:10;15.20;86.20
5192;DHT22;2615;44.524;11.284;2023-05-19T04:56:38;15.20;86.20
5192;DHT22;2615;44.524;11.284;2023-05-19T04:59:07;15.20;86.20
5192;DHT22;2615;44.524;11.284;2023-05-19T05:01:36;15.20;86.20
5192;DHT22;2615;44.524;11.284;2023-05-19T05:04:06;15.20;86.20
5192;DHT22;2615;44.524;11.284;2023-05-19T05:06:34;15.20;86.30
5192;DHT22;2615;44.524;11.284;2023-05-19T05:09:04;15.20;86.30
5192;DHT22;2615;44.524;11.284;2023-05-19T05:11:34;15.20;86.40
5192;DHT22;2615;44.524;11.284;2023-05-19T05:14:03;15.20;86.40
5192;DHT22;2615;44.524;11.284;2023-05-19T05:16:31;15.20;86.50
5192;DHT22;2615;44.524;11.284;2023-05-19T05:19:00;15.20;86.40
5192;DHT22;2615;44.524;11.284;2023-05-19T05:21:29;15.30;86.60
5192;DHT22;2615;44.524;11.284;2023-05-19T05:23:58;15.20;86.50
5192;DHT22;2615;44.524;11.284;2023-05-19T05:26:29;15.20;86.50
5192;DHT22;2615;44.524;11.284;2023-05-19T05:29:01;15.30;86.50
5192;DHT22;2615;44.524;11.284;2023-05-19T05:31:29;15.20;86.40
5192;DHT22;2615;44.524;11.284;2023-05-19T05:33:58;15.20;86.40
5192;DHT22;2615;44.524;11.284;2023-05-19T05:36:26;15.30;86.50
5192;DHT22;2615;44.524;11.284;2023-05-19T05:38:56;15.30;86.50
5192;DHT22;2615;44.524;11.284;2023-05-19T05:41:25;15.30;86.60
5192;DHT22;2615;44.524;11.284;2023-05-19T05:43:55;15.30;86.50
5192;DHT22;2615;44.524;11.284;2023-05-19T05:46:24;15.30;86.60
5192;DHT22;2615;44.524;11.284;2023-05-19T05:48:53;15.30;86.60
5192;DHT22;2615;44.524;11.284;2023-05-19T05:51:22;15.30;86.60
5192;DHT22;2615;44.524;11.284;2023-05-19T05:53:52;15.30;86.60
5192;DHT22;2615;44.524;11.284;2023-05-19T05:56:21;15.30;86.60
5192;DHT22;2615;44.524;11.284;2023-05-19T05:58:49;15.30;86.60
5192;DHT22;2615;44.524;11.284;2023-05-19T06:01:17;15.30;86.60
5192;DHT22;2615;44.524;11.284;2023-05-19T06:03:48;15.30;86.70
5192;DHT22;2615;44.524;11.284;2023-05-19T06:06:16;15.30;86.70
5192;DHT22;2615;44.524;11.284;2023-05-19T06:08:44;15.30;86.70
5192;DHT22;2615;44.524;11.284;2023-05-19T06:11:12;15.40;87.60
5192;DHT22;2615;44.524;11.284;2023-05-19T06:13:40;15.40;86.90
5192;DHT22;2615;44.524;11.284;2023-05-19T06:16:08;15.40;86.90
5192;DHT22;2615;44.524;11.284;2023-05-19T06:18:37;15.40;86.90
5192;DHT22;2615;44.524;11.284;2023-05-19T06:21:07;15.40;86.90
5192;DHT22;2615;44.524;11.284;2023-05-19T06:23:36;15.40;86.90
5192;DHT22;2615;44.524;11.284;2023-05-19T06:26:04;15.40;87.00
5192;DHT22;2615;44.524;11.284;2023-05-19T06:28:32;15.40;87.10
5192;DHT22;2615;44.524;11.284;2023-05-19T06:31:00;15.50;87.30
5192;DHT22;2615;44.524;11.284;2023-05-19T06:33:29;15.40;87.30
5192;DHT22;2615;44.524;11.284;2023-05-19T06:35:57;15.50;87.40
5192;DHT22;2615;44.524;11.284;2023-05-19T06:38:26;15.50;87.50
5192;DHT22;2615;44.524;11.284;2023-05-19T06:40:54;15.50;87.50
5192;DHT22;2615;44.524;11.284;2023-05-19T06:43:22;15.50;87.40
5192;DHT22;2615;44.524;11.284;2023-05-19T06:45:51;15.60;87.60
5192;DHT22;2615;44.524;11.284;2023-05-19T06:48:19;15.60;87.60
5192;DHT22;2615;44.524;11.284;2023-05-19T06:50:47;15.60;87.60
5192;DHT22;2615;44.524;11.284;2023-05-19T06:53:17;15.60;87.60
5192;DHT22;2615;44.524;11.284;2023-05-19T06:55:47;15.60;87.60
5192;DHT22;2615;44.524;11.284;2023-05-19T06:58:25;15.60;87.60
5192;DHT22;2615;44.524;11.284;2023-05-19T07:00:53;15.60;87.60
5192;DHT22;2615;44.524;11.284;2023-05-19T07:03:22;15.60;87.50
5192;DHT22;2615;44.524;11.284;2023-05-19T07:05:50;15.70;87.50
5192;DHT22;2615;44.524;11.284;2023-05-19T07:08:18;15.70;87.50
5192;DHT22;2615;44.524;11.284;2023-05-19T07:10:49;15.70;88.20
5192;DHT22;2615;44.524;11.284;2023-05-19T07:13:17;15.70;87.60
5192;DHT22;2615;44.524;11.284;2023-05-19T07:15:45;15.70;87.60
5192;DHT22;2615;44.524;11.284;2023-05-19T07:18:14;15.80;87.70
5192;DHT22;2615;44.524;11.284;2023-05-19T07:20:43;15.80;87.60
5192;DHT22;2615;44.524;11.284;2023-05-19T07:23:11;15.80;87.50
5192;DHT22;2615;44.524;11.284;2023-05-19T07:25:42;15.80;87.40
5192;DHT22;2615;44.524;11.284;2023-05-19T07:28:11;15.80;87.40
5192;DHT22;2615;44.524;11.284;2023-05-19T07:30:40;15.80;87.40
5192;DHT22;2615;44.524;11.284;2023-05-19T07:33:08;15.90;87.50
5192;DHT22;2615;44.524;11.284;2023-05-19T07:35:36;15.90;87.40
5192;DHT22;2615;44.524;11.284;2023-05-19T07:38:04;15.90;87.30
5192;DHT22;2615;44.524;11.284;2023-05-19T07:40:33;15.90;87.30
5192;DHT22;2615;44.524;11.284;2023-05-19T07:43:01;15.90;87.30
5192;DHT22;2615;44.524;11.284;2023-05-19T07:45:30;15.90;87.30
5192;DHT22;2615;44.524;11.284;2023-05-19T07:47:59;15.90;87.20
5192;DHT22;2615;44.524;11.284;2023-05-19T07:50:27;15.90;87.10
5192;DHT22;2615;44.524;11.284;2023-05-19T07:52:55;15.90;87.00
5192;DHT22;2615;44.524;11.284;2023-05-19T07:55:23;15.90;87.10
5192;DHT22;2615;44.524;11.284;2023-05-19T07:57:52;16.00;87.20
5192;DHT22;2615;44.524;11.284;2023-05-19T08:00:20;16.00;87.20
5192;DHT22;2615;44.524;11.284;2023-05-19T08:02:49;16.00;87.10
5192;DHT22;2615;44.524;11.284;2023-05-19T08:05:18;16.00;87.10
5192;DHT22;2615;44.524;11.284;2023-05-19T08:07:47;16.10;87.20
5192;DHT22;2615;44.524;11.284;2023-05-19T08:10:15;16.10;87.10
5192;DHT22;2615;44.524;11.284;2023-05-19T08:12:43;16.10;87.00
5192;DHT22;2615;44.524;11.284;2023-05-19T08:15:11;16.10;87.00
5192;DHT22;2615;44.524;11.284;2023-05-19T08:17:39;16.10;87.00
5192;DHT22;2615;44.524;11.284;2023-05-19T08:20:09;16.10;87.10
5192;DHT22;2615;44.524;11.284;2023-05-19T08:22:38;16.10;87.20
5192;DHT22;2615;44.524;11.284;2023-05-19T08:25:07;16.10;87.30
5192;DHT22;2615;44.524;11.284;2023-05-19T08:27:35;16.10;87.40
5192;DHT22;2615;44.524;11.284;2023-05-19T08:30:04;16.10;87.40
5192;DHT22;2615;44.524;11.284;2023-05-19T08:32:32;16.10;87.40
5192;DHT22;2615;44.524;11.284;2023-05-19T08:35:01;16.20;87.60
5192;DHT22;2615;44.524;11.284;2023-05-19T08:37:30;16.20;87.50
5192;DHT22;2615;44.524;11.284;2023-05-19T08:39:59;16.20;87.60
5192;DHT22;2615;44.524;11.284;2023-05-19T08:42:30;16.20;87.60
5192;DHT22;2615;44.524;11.284;2023-05-19T08:44:59;16.20;87.60
5192;DHT22;2615;44.524;11.284;2023-05-19T08:47:27;16.30;87.70
5192;DHT22;2615;44.524;11.284;2023-05-19T08:50:02;16.30;87.60
5192;DHT22;2615;44.524;11.284;2023-05-19T08:52:41;16.30;87.60
5192;DHT22;2615;44.524;11.284;2023-05-19T08:55:26;16.30;87.60
5192;DHT22;2615;44.524;11.284;2023-05-19T08:57:57;16.30;87.40
5192;DHT22;2615;44.524;11.284;2023-05-19T09:00:25;16.30;87.40
5192;DHT22;2615;44.524;11.284;2023-05-19T09:02:55;16.30;87.50
5192;DHT22;2615;44.524;11.284;2023-05-19T09:05:43;16.30;87.40
5192;DHT22;2615;44.524;11.284;2023-05-19T09:08:14;16.30;87.40
5192;DHT22;2615;44.524;11.284;2023-05-19T09:10:42;16.30;87.30
5192;DHT22;2615;44.524;11.284;2023-05-19T09:13:10;16.30;87.20
5192;DHT22;2615;44.524;11.284;2023-05-19T09:15:39;16.30;87.30
5192;DHT22;2615;44.524;11.284;2023-05-19T09:18:11;16.30;87.30
5192;DHT22;2615;44.524;11.284;2023-05-19T09:20:41;16.30;87.50
5192;DHT22;2615;44.524;11.284;2023-05-19T09:23:12;16.30;87.50
5192;DHT22;2615;44.524;11.284;2023-05-19T09:25:49;16.30;87.60
5192;DHT22;2615;44.524;11.284;2023-05-19T09:28:24;16.40;87.80
5192;DHT22;2615;44.524;11.284;2023-05-19T09:31:02;16.40;87.60
5192;DHT22;2615;44.524;11.284;2023-05-19T09:33:33;16.40;87.70
5192;DHT22;2615;44.524;11.284;2023-05-19T09:36:01;16.40;87.70
5192;DHT22;2615;44.524;11.284;2023-05-19T09:38:31;16.40;87.60
5192;DHT22;2615;44.524;11.284;2023-05-19T09:41:01;16.40;87.70
5192;DHT22;2615;44.524;11.284;2023-05-19T09:43:30;16.50;87.90
5192;DHT22;2615;44.524;11.284;2023-05-19T09:45:59;16.50;88.00
5192;DHT22;2615;44.524;11.284;2023-05-19T09:48:30;16.50;88.00
5192;DHT22;2615;44.524;11.284;2023-05-19T09:50:59;16.60;88.00
5192;DHT22;2615;44.524;11.284;2023-05-19T09:53:29;16.60;87.90
5192;DHT22;2615;44.524;11.284;2023-05-19T09:55:57;16.60;87.90
5192;DHT22;2615;44.524;11.284;2023-05-19T09:58:30;16.60;87.80
5192;DHT22;2615;44.524;11.284;2023-05-19T10:01:00;16.60;87.70
5192;DHT22;2615;44.524;11.284;2023-05-19T10:03:29;16.60;87.70
5192;DHT22;2615;44.524;11.284;2023-05-19T10:05:59;16.60;87.70
5192;DHT22;2615;44.524;11.284;2023-05-19T10:08:28;16.60;87.80
5192;DHT22;2615;44.524;11.284;2023-05-19T10:10:58;16.60;87.70
5192;DHT22;2615;44.524;11.284;2023-05-19T10:13:28;16.60;87.80
5192;DHT22;2615;44.524;11.284;2023-05-19T10:15:57;16.60;87.80
5192;DHT22;2615;44.524;11.284;2023-05-19T10:18:26;16.60;87.90
5192;DHT22;2615;44.524;11.284;2023-05-19T10:20:56;16.60;88.00
5192;DHT22;2615;44.524;11.284;2023-05-19T10:23:24;16.60;88.00
5192;DHT22;2615;44.524;11.284;2023-05-19T10:25:55;16.60;88.00
5192;DHT22;2615;44.524;11.284;2023-05-19T10:28:28;16.60;88.10
5192;DHT22;2615;44.524;11.284;2023-05-19T10:31:00;16.60;88.20
5192;DHT22;2615;44.524;11.284;2023-05-19T10:33:37;16.60;88.20
5192;DHT22;2615;44.524;11.284;2023-05-19T10:36:24;16.60;88.10
5192;DHT22;2615;44.524;11.284;2023-05-19T10:39:04;16.60;88.10
5192;DHT22;2615;44.524;11.284;2023-05-19T10:41:38;16.60;88.20
5192;DHT22;2615;44.524;11.284;2023-05-19T10:44:18;16.60;88.30
5192;DHT22;2615;44.524;11.284;2023-05-19T10:46:49;16.60;88.30
5192;DHT22;2615;44.524;11.284;2023-05-19T10:49:21;16.60;88.30
5192;DHT22;2615;44.524;11.284;2023-05-19T10:51:51;16.70;88.50
5192;DHT22;2615;44.524;11.284;2023-05-19T10:54:38;16.70;88.60
5192;DHT22;2615;44.524;11.284;2023-05-19T10:57:07;16.70;88.70
5192;DHT22;2615;44.524;11.284;2023-05-19T10:59:36;16.80;88.70
5192;DHT22;2615;44.524;11.284;2023-05-19T11:02:07;16.80;88.70
5192;DHT22;2615;44.524;11.284;2023-05-19T11:04:39;16.80;88.70
5192;DHT22;2615;44.524;11.284;2023-05-19T11:07:17;16.70;88.80
5192;DHT22;2615;44.524;11.284;2023-05-19T11:09:49;16.80;88.90
5192;DHT22;2615;44.524;11.284;2023-05-19T11:12:22;16.80;88.90
5192;DHT22;2615;44.524;11.284;2023-05-19T11:14:51;16.70;88.80
5192;DHT22;2615;44.524;11.284;2023-05-19T11:17:23;16.70;88.90
5192;DHT22;2615;44.524;11.284;2023-05-19T11:19:54;16.70;88.90
5192;DHT22;2615;44.524;11.284;2023-05-19T11:22:23;16.70;88.90
5192;DHT22;2615;44.524;11.284;2023-05-19T11:24:54;16.70;88.90
5192;DHT22;2615;44.524;11.284;2023-05-19T11:27:24;16.70;89.00
5192;DHT22;2615;44.524;11.284;2023-05-19T11:29:54;16.60;89.00
5192;DHT22;2615;44.524;11.284;2023-05-19T11:32:27;16.60;89.10
5192;DHT22;2615;44.524;11.284;2023-05-19T11:34:56;16.70;90.00
5192;DHT22;2615;44.524;11.284;2023-05-19T11:37:24;16.60;89.20
5192;DHT22;2615;44.524;11.284;2023-05-19T11:39:52;16.70;89.40
5192;DHT22;2615;44.524;11.284;2023-05-19T11:42:20;16.70;89.50
5192;DHT22;2615;44.524;11.284;2023-05-19T11:44:49;16.70;89.50
5192;DHT22;2615;44.524;11.284;2023-05-19T11:47:17;16.80;89.60
5192;DHT22;2615;44.524;11.284;2023-05-19T11:49:49;16.70;89.60
5192;DHT22;2615;44.524;11.284;2023-05-19T11:52:21;16.80;89.60
5192;DHT22;2615;44.524;11.284;2023-05-19T11:54:49;16.70;89.70
5192;DHT22;2615;44.524;11.284;2023-05-19T11:57:18;16.70;89.70
5192;DHT22;2615;44.524;11.284;2023-05-19T11:59:46;16.70;89.80
5192;DHT22;2615;44.524;11.284;2023-05-19T12:02:17;16.70;89.90
5192;DHT22;2615;44.524;11.284;2023-05-19T12:04:45;16.70;90.00
5192;DHT22;2615;44.524;11.284;2023-05-19T12:07:17;16.70;90.00
5192;DHT22;2615;44.524;11.284;2023-05-19T12:09:46;16.70;90.00
5192;DHT22;2615;44.524;11.284;2023-05-19T12:12:15;16.70;90.00
5192;DHT22;2615;44.524;11.284;2023-05-19T12:14:45;16.80;90.10
5192;DHT22;2615;44.524;11.284;2023-05-19T12:17:15;16.80;90.10
5192;DHT22;2615;44.524;11.284;2023-05-19T12:19:44;16.80;90.20
5192;DHT22;2615;44.524;11.284;2023-05-19T12:22:14;16.80;90.20
5192;DHT22;2615;44.524;11.284;2023-05-19T12:24:44;16.80;90.20
5192;DHT22;2615;44.524;11.284;2023-05-19T12:27:16;16.80;90.20
5192;DHT22;2615;44.524;11.284;2023-05-19T12:29:48;16.80;90.20
5192;DHT22;2615;44.524;11.284;2023-05-19T12:32:18;16.90;90.30
5192;DHT22;2615;44.524;11.284;2023-05-19T12:34:46;16.90;90.40
5192;DHT22;2615;44.524;11.284;2023-05-19T12:37:14;16.90;90.40
5192;DHT22;2615;44.524;11.284;2023-05-19T12:39:44;17.00;90.50
5192;DHT22;2615;44.524;11.284;2023-05-19T12:42:14;17.00;90.40
5192;DHT22;2615;44.524;11.284;2023-05-19T12:44:45;17.00;90.40
5192;DHT22;2615;44.524;11.284;2023-05-19T12:47:15;17.00;90.40
5192;DHT22;2615;44.524;11.284;2023-05-19T12:49:54;17.00;90.40
5192;DHT22;2615;44.524;11.284;2023-05-19T12:52:24;17.00;90.40
5192;DHT22;2615;44.524;11.284;2023-05-19T12:54:58;17.00;90.40
5192;DHT22;2615;44.524;11.284;2023-05-19T12:57:27;16.90;90.40
5192;DHT22;2615;44.524;11.284;2023-05-19T13:00:01;16.90;90.40
5192;DHT22;2615;44.524;11.284;2023-05-19T13:02:33;16.90;90.40
5192;DHT22;2615;44.524;11.284;2023-05-19T13:05:02;16.90;90.40
5192;DHT22;2615;44.524;11.284;2023-05-19T13:07:31;16.90;90.50
5192;DHT22;2615;44.524;11.284;2023-05-19T13:10:03;16.90;90.50
5192;DHT22;2615;44.524;11.284;2023-05-19T13:12:32;16.90;90.50
5192;DHT22;2615;44.524;11.284;2023-05-19T13:15:00;16.90;90.50
5192;DHT22;2615;44.524;11.284;2023-05-19T13:17:28;16.90;90.60
5192;DHT22;2615;44.524;11.284;2023-05-19T13:19:56;16.90;90.60
5192;DHT22;2615;44.524;11.284;2023-05-19T13:22:25;16.90;90.60
5192;DHT22;2615;44.524;11.284;2023-05-19T13:24:53;16.90;90.60
5192;DHT22;2615;44.524;11.284;2023-05-19T13:27:25;17.00;90.70
5192;DHT22;2615;44.524;11.284;2023-05-19T13:29:54;17.00;90.70
5192;DHT22;2615;44.524;11.284;2023-05-19T13:32:22;17.00;90.70
5192;DHT22;2615;44.524;11.284;2023-05-19T13:34:50;17.10;90.70
5192;DHT22;2615;44.524;11.284;2023-05-19T13:37:18;17.20;90.80
5192;DHT22;2615;44.524;11.284;2023-05-19T13:39:46;17.20;90.80
5192;DHT22;2615;44.524;11.284;2023-05-19T13:42:14;17.30;90.80
5192;DHT22;2615;44.524;11.284;2023-05-19T13:44:46;17.40;90.80
5192;DHT22;2615;44.524;11.284;2023-05-19T13:47:14;17.50;90.80
5192;DHT22;2615;44.524;11.284;2023-05-19T13:49:42;17.50;90.80
5192;DHT22;2615;44.524;11.284;2023-05-19T13:52:10;17.60;90.70
5192;DHT22;2615;44.524;11.284;2023-05-19T13:54:39;17.60;90.70
5192;DHT22;2615;44.524;11.284;2023-05-19T13:57:07;17.60;90.70
5192;DHT22;2615;44.524;11.284;2023-05-19T13:59:35;17.60;90.60
5192;DHT22;2615;44.524;11.284;2023-05-19T14:02:20;17.60;90.50
5192;DHT22;2615;44.524;11.284;2023-05-19T14:04:48;17.60;90.40
5192;DHT22;2615;44.524;11.284;2023-05-19T14:07:16;17.60;90.40
5192;DHT22;2615;44.524;11.284;2023-05-19T14:09:45;17.60;90.30
5192;DHT22;2615;44.524;11.284;2023-05-19T14:12:13;17.50;90.10
5192;DHT22;2615;44.524;11.284;2023-05-19T14:14:41;17.50;90.00
5192;DHT22;2615;44.524;11.284;2023-05-19T14:17:10;17.40;89.70
5192;DHT22;2615;44.524;11.284;2023-05-19T14:19:40;17.40;89.40
5192;DHT22;2615;44.524;11.284;2023-05-19T14:22:08;17.40;89.20
5192;DHT22;2615;44.524;11.284;2023-05-19T14:24:36;17.40;89.10
5192;DHT22;2615;44.524;11.284;2023-05-19T14:27:05;17.30;88.70
5192;DHT22;2615;44.524;11.284;2023-05-19T14:29:33;17.30;88.50
5192;DHT22;2615;44.524;11.284;2023-05-19T14:32:01;17.30;88.50
5192;DHT22;2615;44.524;11.284;2023-05-19T14:34:29;17.20;88.40
5192;DHT22;2615;44.524;11.284;2023-05-19T14:36:59;17.20;88.30
5192;DHT22;2615;44.524;11.284;2023-05-19T14:39:28;17.30;88.40
5192;DHT22;2615;44.524;11.284;2023-05-19T14:41:57;17.40;88.60
5192;DHT22;2615;44.524;11.284;2023-05-19T14:44:29;17.40;88.40
5192;DHT22;2615;44.524;11.284;2023-05-19T14:46:58;17.40;88.30
5192;DHT22;2615;44.524;11.284;2023-05-19T14:49:27;17.50;88.40
5192;DHT22;2615;44.524;11.284;2023-05-19T14:51:55;17.50;88.40
5192;DHT22;2615;44.524;11.284;2023-05-19T14:54:25;17.50;88.20
5192;DHT22;2615;44.524;11.284;2023-05-19T14:56:53;17.50;88.10
5192;DHT22;2615;44.524;11.284;2023-05-19T14:59:22;17.50;88.00
5192;DHT22;2615;44.524;11.284;2023-05-19T15:01:50;17.50;88.10
5192;DHT22;2615;44.524;11.284;2023-05-19T15:04:18;17.50;88.00
5192;DHT22;2615;44.524;11.284;2023-05-19T15:06:47;17.50;87.80
5192;DHT22;2615;44.524;11.284;2023-05-19T15:09:36;17.50;87.60
5192;DHT22;2615;44.524;11.284;2023-05-19T15:12:04;17.50;87.40
5192;DHT22;2615;44.524;11.284;2023-05-19T15:14:33;17.50;87.30
5192;DHT22;2615;44.524;11.284;2023-05-19T15:17:01;17.50;87.10
5192;DHT22;2615;44.524;11.284;2023-05-19T15:19:29;17.40;86.90
5192;DHT22;2615;44.524;11.284;2023-05-19T15:21:57;17.40;86.90
5192;DHT22;2615;44.524;11.284;2023-05-19T15:24:26;17.30;86.70
5192;DHT22;2615;44.524;11.284;2023-05-19T15:26:55;17.30;86.60
5192;DHT22;2615;44.524;11.284;2023-05-19T15:29:23;17.20;86.50
5192;DHT22;2615;44.524;11.284;2023-05-19T15:31:51;17.20;86.60
5192;DHT22;2615;44.524;11.284;2023-05-19T15:34:20;17.30;86.50
5192;DHT22;2615;44.524;11.284;2023-05-19T15:36:48;17.20;86.30
5192;DHT22;2615;44.524;11.284;2023-05-19T15:39:16;17.20;86.10
5192;DHT22;2615;44.524;11.284;2023-05-19T15:41:44;17.20;86.00
5192;DHT22;2615;44.524;11.284;2023-05-19T15:44:14;17.20;86.00
5192;DHT22;2615;44.524;11.284;2023-05-19T15:46:42;17.30;86.10
5192;DHT22;2615;44.524;11.284;2023-05-19T15:49:10;17.20;86.00
5192;DHT22;2615;44.524;11.284;2023-05-19T15:51:39;17.20;85.90
5192;DHT22;2615;44.524;11.284;2023-05-19T15:54:07;17.20;85.80
5192;DHT22;2615;44.524;11.284;2023-05-19T15:56:35;17.30;85.90
5192;DHT22;2615;44.524;11.284;2023-05-19T15:59:03;17.30;85.90
5192;DHT22;2615;44.524;11.284;2023-05-19T16:01:32;17.30;85.80
5192;DHT22;2615;44.524;11.284;2023-05-19T16:04:01;17.30;85.70